Main page
METAR-TAF:

METAR-TAF

Airports :

Olsztyn-Mazury Airport

Olsztyn, Poland

latitude: 53-28-55N, longitude: 20-56-16E, elevation: 141 m

Current weather observation

The report was made 36 minutes ago, at 12:30 UTC
Wind 8 kt from the East/Northeast, varying between Northeast and East/Southeast
Temperature 0°C
Humidity 74%
Pressure 1027 hPa
Visibility 10 km or more
Broken clouds at a height of 2000 ft

METAR: EPSY 211230Z 07008KT 040V120 9999 BKN020 00/M04 Q1027

Time: 14:06 (13:06 UTC)

Forecast

The report was made 1 hour and 36 minutes ago, at 11:30 UTC
Forecast valid from 21 at 12 UTC to 21 at 21 UTC
Wind 8 kt from the East
Visibility 10 km or more
Broken clouds at a height of 2000 ft

TAF: EPSY 211130Z 2112/2121 10008KT 9999 BKN020

Weather observations and forecasts of more than 4000 airports (METAR and TAF reports).

The available stations are represented by yellow and red dots on the map.

Hover mouse over dot to see the name of the station.

Then click to see weather observations and forecasts.

To change the map : click on the green buttons with a black cross to zoom in, on the green button with a dash to zoom out, or on the green arrows for adjacent maps.


METAR-TAF: